createdAt,value
2022-09-04T00:03:02.752Z,16.20
2022-09-04T00:08:48.540Z,16.10
2022-09-04T00:14:08.602Z,16.30
2022-09-04T00:19:43.692Z,15.90
2022-09-04T00:25:00.428Z,15.80
2022-09-04T00:30:15.031Z,15.70
2022-09-04T00:35:41.553Z,15.60
2022-09-04T00:41:10.338Z,15.30
2022-09-04T00:47:01.942Z,15.20
2022-09-04T00:52:36.787Z,15.40
2022-09-04T00:57:52.353Z,15.20
2022-09-04T01:03:06.581Z,15.00
2022-09-04T01:08:40.638Z,15.10
2022-09-04T01:14:26.676Z,15.10
2022-09-04T01:20:15.628Z,15.10
2022-09-04T01:25:47.839Z,14.80
2022-09-04T01:31:10.658Z,14.80
2022-09-04T01:36:31.103Z,14.90
2022-09-04T01:41:57.063Z,14.90
2022-09-04T01:47:36.542Z,14.80
2022-09-04T01:53:21.849Z,14.70
2022-09-04T01:58:58.514Z,14.60
2022-09-04T02:04:35.208Z,14.70
2022-09-04T02:10:08.802Z,14.90
2022-09-04T02:15:20.071Z,14.70
2022-09-04T02:20:30.653Z,14.70
2022-09-04T02:25:47.973Z,14.40
2022-09-04T02:31:10.938Z,14.40
2022-09-04T02:36:56.643Z,14.50
2022-09-04T02:42:19.836Z,14.50
2022-09-04T02:47:50.243Z,14.20
2022-09-04T02:53:04.355Z,14.30
2022-09-04T02:58:18.201Z,14.20
2022-09-04T03:03:37.939Z,14.20
2022-09-04T03:08:55.482Z,14.20
2022-09-04T03:14:15.330Z,14.20
2022-09-04T03:19:35.174Z,14.10
2022-09-04T03:24:58.211Z,14.00
2022-09-04T03:30:11.977Z,14.10
2022-09-04T03:35:53.956Z,14.20
2022-09-04T03:41:23.091Z,13.90
2022-09-04T03:46:49.372Z,14.20
2022-09-04T03:52:40.753Z,14.00
2022-09-04T03:58:20.303Z,14.00
2022-09-04T04:04:01.333Z,14.00
2022-09-04T04:09:51.727Z,14.20
2022-09-04T04:15:17.898Z,13.90
2022-09-04T04:21:09.705Z,13.80
2022-09-04T04:26:40.295Z,13.80
2022-09-04T04:32:17.234Z,13.60
2022-09-04T04:37:40.894Z,13.70
2022-09-04T04:42:57.456Z,13.70
2022-09-04T04:48:17.980Z,13.60
2022-09-04T04:54:20.664Z,13.60
2022-09-04T04:59:46.916Z,13.70
2022-09-04T05:05:19.218Z,13.70
2022-09-04T05:10:38.982Z,13.50
2022-09-04T05:16:08.404Z,13.60
2022-09-04T05:21:38.250Z,13.40
2022-09-04T05:26:58.688Z,13.50
2022-09-04T05:32:30.698Z,13.60
2022-09-04T05:37:56.617Z,13.40
2022-09-04T05:43:20.013Z,13.60
2022-09-04T05:48:46.103Z,13.80
2022-09-04T05:54:02.996Z,13.80
2022-09-04T05:59:30.294Z,13.80
2022-09-04T06:04:56.231Z,13.80
2022-09-04T06:10:38.451Z,14.00
2022-09-04T06:15:55.662Z,14.00
2022-09-04T06:21:21.615Z,13.80
2022-09-04T06:27:05.867Z,14.00
2022-09-04T06:32:17.099Z,14.00
2022-09-04T06:38:08.589Z,14.00
2022-09-04T06:43:31.530Z,14.10
2022-09-04T06:49:10.024Z,14.30
2022-09-04T06:54:32.196Z,14.40
2022-09-04T07:00:08.269Z,14.70
2022-09-04T07:05:25.308Z,14.90
2022-09-04T07:10:48.265Z,15.00
2022-09-04T07:16:31.517Z,15.10
2022-09-04T07:21:52.507Z,15.20
2022-09-04T07:27:16.052Z,15.30
2022-09-04T07:32:53.680Z,15.40
2022-09-04T07:38:10.672Z,15.50
2022-09-04T07:43:40.277Z,15.60
2022-09-04T07:49:01.907Z,15.70
2022-09-04T07:54:40.005Z,16.00
2022-09-04T08:00:09.962Z,15.90
2022-09-04T08:05:24.418Z,16.10
2022-09-04T08:11:07.500Z,16.50
2022-09-04T08:16:33.090Z,17.00
2022-09-04T08:21:45.497Z,17.10
2022-09-04T08:27:23.953Z,17.50
2022-09-04T08:33:21.468Z,17.80
2022-09-04T08:39:07.131Z,18.30
2022-09-04T08:44:45.254Z,19.30
2022-09-04T08:50:14.494Z,19.90
2022-09-04T08:55:49.513Z,20.40
2022-09-04T09:01:28.008Z,20.60
2022-09-04T09:06:51.779Z,20.40
2022-09-04T09:12:41.342Z,21.40
2022-09-04T09:18:06.416Z,21.70
2022-09-04T09:23:23.381Z,21.60
2022-09-04T09:28:40.024Z,21.50
2022-09-04T09:34:10.959Z,22.40
2022-09-04T09:39:31.411Z,23.10
2022-09-04T09:44:57.783Z,23.00
2022-09-04T09:50:35.999Z,23.10
2022-09-04T09:56:11.110Z,23.60
2022-09-04T10:01:31.492Z,23.40
2022-09-04T10:06:59.520Z,24.30
2022-09-04T10:12:57.171Z,24.20
2022-09-04T10:18:14.243Z,24.30
2022-09-04T10:23:46.194Z,23.80
2022-09-04T10:29:26.909Z,24.30
2022-09-04T10:35:26.097Z,24.10
2022-09-04T10:40:51.177Z,24.80
2022-09-04T10:46:23.184Z,23.90
2022-09-04T10:51:47.646Z,24.30
2022-09-04T10:57:04.643Z,23.90
2022-09-04T11:02:47.195Z,23.20
2022-09-04T11:08:28.120Z,22.30
2022-09-04T11:13:55.607Z,23.50
2022-09-04T11:19:35.200Z,23.90
2022-09-04T11:25:14.600Z,24.50
2022-09-04T11:30:32.004Z,24.20
2022-09-04T11:36:11.648Z,23.10
2022-09-04T11:41:56.770Z,22.60
2022-09-04T11:47:45.279Z,22.50
2022-09-04T11:53:29.001Z,22.30
2022-09-04T11:59:05.281Z,22.30
2022-09-04T12:04:31.411Z,21.90
2022-09-04T12:09:48.503Z,21.80
2022-09-04T12:15:07.244Z,21.60
2022-09-04T12:20:33.451Z,20.20
2022-09-04T12:26:06.833Z,19.00
2022-09-04T12:31:31.312Z,18.70
2022-09-04T12:37:24.469Z,18.00
2022-09-04T12:42:47.288Z,18.10
2022-09-04T12:48:25.997Z,18.80
2022-09-04T12:53:54.666Z,18.90
2022-09-04T12:59:17.944Z,18.90
2022-09-04T13:04:35.485Z,18.90
2022-09-04T13:10:24.383Z,19.20
2022-09-04T13:15:59.355Z,19.20
2022-09-04T13:21:28.393Z,19.10
2022-09-04T13:27:16.963Z,19.10
2022-09-04T13:33:14.146Z,19.20
2022-09-04T13:38:38.016Z,19.50
2022-09-04T13:44:01.040Z,19.80
2022-09-04T13:49:15.136Z,20.10
2022-09-04T13:54:31.656Z,20.10
2022-09-04T13:59:39.761Z,20.70
2022-09-04T14:04:51.210Z,20.10
2022-09-04T14:10:04.315Z,19.50
2022-09-04T14:15:21.242Z,19.90
2022-09-04T14:20:47.754Z,19.90
2022-09-04T14:26:00.757Z,20.10
2022-09-04T14:31:35.665Z,19.90
2022-09-04T14:36:54.675Z,19.50
2022-09-04T14:42:28.435Z,19.30
2022-09-04T14:47:47.663Z,19.00
2022-09-04T14:53:06.508Z,18.60
2022-09-04T14:58:29.205Z,18.50
2022-09-04T15:04:10.911Z,18.30
2022-09-04T15:09:35.318Z,18.20
2022-09-04T15:14:43.636Z,18.20
2022-09-04T15:20:06.775Z,18.20
2022-09-04T15:25:59.636Z,18.30
2022-09-04T15:31:30.628Z,18.30
2022-09-04T15:36:39.803Z,18.20
2022-09-04T15:41:50.381Z,18.10
2022-09-04T15:47:17.503Z,18.00
2022-09-04T15:52:34.646Z,18.00
2022-09-04T15:57:51.626Z,17.80
2022-09-04T16:03:07.673Z,17.70
2022-09-04T16:08:31.569Z,17.70
2022-09-04T16:13:58.528Z,17.60
2022-09-04T16:19:32.223Z,17.50
2022-09-04T16:24:45.499Z,17.40
2022-09-04T16:30:05.013Z,17.50
2022-09-04T16:35:21.961Z,17.60
2022-09-04T16:41:04.623Z,17.40
2022-09-04T16:46:32.822Z,17.50
2022-09-04T16:51:49.017Z,17.50
2022-09-04T16:57:13.136Z,17.20
2022-09-04T17:02:51.564Z,17.10
2022-09-04T17:08:12.237Z,17.10
2022-09-04T17:13:43.975Z,16.80
2022-09-04T17:18:54.830Z,16.60
2022-09-04T17:29:18.962Z,16.70
2022-09-04T17:29:34.443Z,16.70
2022-09-04T17:40:43.702Z,16.80
2022-09-04T17:40:48.848Z,16.60
2022-09-04T17:45:52.957Z,16.40
2022-09-04T17:51:07.752Z,16.50
2022-09-04T17:56:31.211Z,16.40
2022-09-04T18:02:10.689Z,16.40
2022-09-04T18:08:06.626Z,16.30
2022-09-04T18:12:47.354Z,16.30
2022-09-04T18:18:04.034Z,16.20
2022-09-04T18:23:50.965Z,16.00
2022-09-04T18:30:02.063Z,15.90
2022-09-04T18:37:18.793Z,15.90
2022-09-04T18:40:42.956Z,15.80
2022-09-04T18:50:23.471Z,15.90
2022-09-04T18:51:20.703Z,15.80
2022-09-04T18:56:35.089Z,15.90
2022-09-04T19:01:46.028Z,16.00
2022-09-04T19:07:11.730Z,15.90
2022-09-04T19:12:21.772Z,16.00
2022-09-04T19:17:40.765Z,15.70
2022-09-04T19:22:54.367Z,15.70
2022-09-04T19:28:16.693Z,16.00
2022-09-04T19:33:42.677Z,15.90
2022-09-04T19:45:55.184Z,15.90
2022-09-04T19:46:15.286Z,15.80
2022-09-04T19:52:38.208Z,15.80
2022-09-04T19:55:25.248Z,15.90
2022-09-04T20:00:42.171Z,15.80
2022-09-04T20:05:41.842Z,15.80
2022-09-04T20:10:58.885Z,15.70
2022-09-04T20:16:29.102Z,15.60
2022-09-04T20:21:49.047Z,15.60
2022-09-04T20:27:17.348Z,15.40
2022-09-04T20:32:34.293Z,15.20
2022-09-04T20:37:46.144Z,15.20
2022-09-04T20:43:31.029Z,15.20
2022-09-04T20:52:59.845Z,15.00
2022-09-04T20:54:41.313Z,15.10
2022-09-04T21:03:22.527Z,15.10
2022-09-04T21:05:32.851Z,14.80
2022-09-04T21:10:55.982Z,14.80
2022-09-04T21:16:38.594Z,14.70
2022-09-04T21:22:32.324Z,15.00
2022-09-04T21:27:50.271Z,14.70
2022-09-04T21:33:26.940Z,14.80
2022-09-04T21:39:06.228Z,14.60
2022-09-04T21:44:20.601Z,14.50
2022-09-04T21:49:34.805Z,14.50
2022-09-04T21:56:49.378Z,14.40
2022-09-04T22:02:39.910Z,14.40
2022-09-04T22:06:04.457Z,14.40
2022-09-04T22:13:42.101Z,14.50
2022-09-04T22:17:45.719Z,14.50
2022-09-04T22:23:37.633Z,14.50
2022-09-04T22:29:14.099Z,14.50
2022-09-04T22:34:40.422Z,14.50
2022-09-04T22:40:18.671Z,14.30
2022-09-04T22:45:51.061Z,14.10
2022-09-04T22:51:17.410Z,14.20
2022-09-04T22:56:53.584Z,14.20
2022-09-04T23:02:14.319Z,14.20
2022-09-04T23:13:53.495Z,14.20
2022-09-04T23:13:53.691Z,14.40
2022-09-04T23:24:00.044Z,14.30
2022-09-04T23:26:58.500Z,14.10
2022-09-04T23:29:45.065Z,14.00
2022-09-04T23:35:14.351Z,14.00
2022-09-04T23:40:47.626Z,13.90
2022-09-04T23:46:06.290Z,14.00
2022-09-04T23:51:44.752Z,14.40
2022-09-04T23:57:05.359Z,14.20
